Belize City, Belize
Current Conditions -  °F | °C
As of 4:00 PM on Saturday 25 Oct 2014 (Local Time) from MZBZ Reporting Station
Scattered Clouds Scattered Clouds  
Wind Chill: 84°   Ceiling: Unl
Heat Index: 90°   Visibility: 6mi
Dew Point: 72°   Wind: 6mph
Humidity: 66%   Direction: 20°NNE
Pressure: 29.93"   Gusts: NA
Location:  17.5°N, 88.19°W
Report Text: MZBZ 252200Z 02005KT 9999 SCT021 29/22 A2993 Q1013 NOSIG
Loading
Personal Weather Stations






























Interactive Weather Map New forecast layout! Learn more

10-Day Weather Forecast

Advertisements
Track Severe Weather on mobile